Time;durP1;ratioP1;P1;durP2;ratioP2;P2;SDS_P1;SDS_P2;PMS_P1;PMS_P2;Temp;Humidity;BMP_temperature;BMP_pressure;BME280_temperature;BME280_humidity;BME280_pressure;Samples;Min_cycle;Max_cycle;Signal;HPM_P1;HPM_P2
2023/01/27 00:00:41;;;;;;;59.53;15.65;;;6.00;90.60;;;;;;5084653;28;20048;-57
2023/01/27 00:03:10;;;;;;;56.28;14.75;;;6.00;90.60;;;;;;5068036;28;20047;-57
2023/01/27 00:05:36;;;;;;;55.42;15.02;;;5.90;90.60;;;;;;5068359;28;20047;-57
2023/01/27 00:08:01;;;;;;;59.10;15.13;;;5.90;90.60;;;;;;5085814;28;20033;-57
2023/01/27 00:10:27;;;;;;;55.53;14.55;;;6.00;90.60;;;;;;5084614;28;20149;-57
2023/01/27 00:15:37;;;;;;;61.92;15.43;;;5.90;90.60;;;;;;5084923;28;20046;-57
2023/01/27 00:18:02;;;;;;;58.50;15.35;;;5.90;90.60;;;;;;5084400;28;20045;-57
2023/01/27 00:26:05;;;;;;;59.00;14.88;;;5.80;90.60;;;;;;5084457;28;20054;-57
2023/01/27 00:28:35;;;;;;;44.10;14.20;;;5.80;90.60;;;;;;5067442;28;20028;-57
2023/01/27 00:31:00;;;;;;;51.63;15.38;;;5.80;90.70;;;;;;5084096;28;20070;-57
2023/01/27 00:33:29;;;;;;;51.72;15.35;;;5.80;90.60;;;;;;5100777;28;20078;-57
2023/01/27 00:36:01;;;;;;;60.40;15.27;;;5.80;90.60;;;;;;5067628;28;20036;-57
2023/01/27 00:38:28;;;;;;;52.38;14.40;;;5.80;90.60;;;;;;5085307;28;20017;-57
2023/01/27 00:43:37;;;;;;;39.95;14.38;;;5.80;90.60;;;;;;5084243;28;20086;-57
2023/01/27 00:46:03;;;;;;;52.53;12.80;;;5.70;90.50;;;;;;5085494;28;20040;-57
2023/01/27 00:48:28;;;;;;;45.03;14.27;;;5.70;90.50;;;;;;5084912;28;20052;-57
2023/01/27 00:50:54;;;;;;;40.35;13.27;;;5.70;90.50;;;;;;5083471;28;20035;-57
2023/01/27 00:53:19;;;;;;;39.65;13.13;;;5.70;90.80;;;;;;5083557;28;20034;-57
2023/01/27 00:55:46;;;;;;;37.33;13.52;;;5.70;90.60;;;;;;5083620;28;20024;-57
2023/01/27 00:58:12;;;;;;;42.15;12.68;;;5.70;90.60;;;;;;5085141;28;20029;-57
2023/01/27 01:00:37;;;;;;;50.15;13.40;;;5.70;90.60;;;;;;5085246;28;20156;-57
2023/01/27 01:03:03;;;;;;;41.83;13.57;;;5.70;90.60;;;;;;5083721;28;20043;-57
2023/01/27 01:05:28;;;;;;;48.40;13.00;;;5.70;90.60;;;;;;5083749;28;20064;-57
2023/01/27 01:07:54;;;;;;;38.63;13.02;;;5.60;90.50;;;;;;5084930;28;20066;-57
2023/01/27 01:10:19;;;;;;;40.55;12.45;;;5.60;90.50;;;;;;5066769;28;20028;-57
2023/01/27 01:12:45;;;;;;;46.33;13.90;;;5.60;90.50;;;;;;5084987;28;20085;-57
2023/01/27 01:15:10;;;;;;;33.72;12.35;;;5.60;90.50;;;;;;5083635;28;20056;-56
2023/01/27 01:17:36;;;;;;;38.70;13.13;;;5.60;90.60;;;;;;5085113;28;20051;-57
2023/01/27 01:20:01;;;;;;;44.03;12.18;;;5.60;90.50;;;;;;5084910;28;20411;-57
2023/01/27 01:22:27;;;;;;;36.33;12.18;;;5.60;90.50;;;;;;5066917;28;20040;-57
2023/01/27 01:24:53;;;;;;;36.95;12.07;;;5.60;90.50;;;;;;5066938;28;20137;-57
2023/01/27 01:27:18;;;;;;;36.50;11.68;;;5.60;90.50;;;;;;5084876;28;20036;-57
2023/01/27 01:29:44;;;;;;;39.05;12.90;;;5.50;90.50;;;;;;5084728;28;20020;-57
2023/01/27 01:32:09;;;;;;;37.30;12.85;;;5.60;90.50;;;;;;5083397;28;20456;-57
2023/01/27 01:34:36;;;;;;;31.65;10.90;;;5.50;90.50;;;;;;5084632;28;20047;-57
2023/01/27 01:37:02;;;;;;;34.30;11.98;;;5.50;90.50;;;;;;5083329;28;20145;-57
2023/01/27 01:39:28;;;;;;;34.47;11.57;;;5.50;90.50;;;;;;5083299;28;20142;-57
2023/01/27 01:41:53;;;;;;;31.98;12.02;;;5.50;90.50;;;;;;5066648;28;20031;-57
2023/01/27 01:44:26;;;;;;;39.13;11.93;;;5.50;90.50;;;;;;5083281;28;20042;-57
2023/01/27 01:46:52;;;;;;;36.28;10.88;;;5.40;90.50;;;;;;5084852;28;20445;-57
2023/01/27 01:49:19;;;;;;;31.55;12.63;;;5.40;90.40;;;;;;5084361;28;20101;-57
2023/01/27 01:51:50;;;;;;;33.38;11.80;;;5.40;90.40;;;;;;5066532;28;20025;-57
2023/01/27 01:54:18;;;;;;;29.17;11.02;;;5.40;90.50;;;;;;5066557;28;20029;-57
2023/01/27 01:56:52;;;;;;;28.83;11.05;;;5.40;90.40;;;;;;5083136;28;20473;-57
2023/01/27 01:59:21;;;;;;;26.75;10.80;;;5.40;90.40;;;;;;5067033;28;20021;-57
2023/01/27 02:01:46;;;;;;;25.25;10.48;;;5.40;90.30;;;;;;5083207;28;20051;-57
2023/01/27 02:04:15;;;;;;;27.17;10.40;;;5.40;90.40;;;;;;5085859;28;20029;-57
2023/01/27 02:06:44;;;;;;;34.40;11.00;;;5.40;90.40;;;;;;5086961;28;20477;-57
2023/01/27 02:09:10;;;;;;;29.95;10.40;;;5.40;90.30;;;;;;5086835;28;20170;-57
2023/01/27 02:11:35;;;;;;;23.25;10.10;;;5.40;90.30;;;;;;5070228;28;20132;-57
2023/01/27 02:14:01;;;;;;;25.52;10.15;;;5.30;90.30;;;;;;5088018;28;20028;-57
2023/01/27 02:16:27;;;;;;;28.38;10.38;;;5.40;90.40;;;;;;5069909;28;20029;-57
2023/01/27 02:18:52;;;;;;;22.65;10.00;;;5.30;90.30;;;;;;5069960;28;20032;-57
2023/01/27 02:21:18;;;;;;;25.73;9.93;;;5.30;90.30;;;;;;5087994;28;20050;-57
2023/01/27 02:24:01;;;;;;;27.48;10.25;;;5.30;90.20;;;;;;5070037;28;20029;-57
2023/01/27 02:26:35;;;;;;;25.00;9.13;;;5.30;90.20;;;;;;5072033;28;20127;-56
2023/01/27 02:29:09;;;;;;;19.92;10.43;;;5.30;90.20;;;;;;5069889;28;20024;-57
2023/01/27 02:31:34;;;;;;;23.23;9.35;;;5.30;90.20;;;;;;5102755;28;20028;-57
2023/01/27 02:34:02;;;;;;;27.42;9.70;;;5.30;90.20;;;;;;5086315;28;20025;-57
2023/01/27 02:36:29;;;;;;;25.05;9.88;;;5.20;90.20;;;;;;5086525;28;20457;-57
2023/01/27 02:38:55;;;;;;;24.45;9.63;;;5.20;90.20;;;;;;5069953;28;20039;-57
2023/01/27 02:41:25;;;;;;;22.33;9.10;;;5.20;90.20;;;;;;5070407;28;20025;-56
2023/01/27 02:43:51;;;;;;;20.08;9.07;;;5.20;90.20;;;;;;5086265;28;20064;-57
2023/01/27 02:46:17;;;;;;;22.45;8.35;;;5.20;90.20;;;;;;5086215;28;20031;-57
2023/01/27 02:48:42;;;;;;;29.17;9.13;;;5.20;90.20;;;;;;5085890;28;20041;-57
2023/01/27 02:51:08;;;;;;;21.88;9.13;;;5.20;90.20;;;;;;5087699;28;20047;-57
2023/01/27 02:53:33;;;;;;;18.88;8.88;;;5.20;90.10;;;;;;5087293;28;20036;-57
2023/01/27 02:55:59;;;;;;;21.15;8.85;;;5.20;90.10;;;;;;5087600;28;20054;-57
2023/01/27 02:58:24;;;;;;;27.20;9.32;;;5.20;90.10;;;;;;5069410;28;20024;-57
2023/01/27 03:00:50;;;;;;;19.42;8.85;;;5.20;90.10;;;;;;5085942;28;20032;-57
2023/01/27 03:03:15;;;;;;;16.70;7.80;;;5.20;90.10;;;;;;5085966;28;20035;-57
2023/01/27 03:05:41;;;;;;;18.00;7.93;;;5.20;90.10;;;;;;5087488;28;20021;-57
2023/01/27 03:08:06;;;;;;;20.23;8.82;;;5.20;90.10;;;;;;5069205;28;20062;-57
2023/01/27 03:10:32;;;;;;;19.08;8.07;;;5.20;90.10;;;;;;5069083;28;20064;-57
2023/01/27 03:12:57;;;;;;;16.88;7.85;;;5.10;90.10;;;;;;5085608;28;20036;-57
2023/01/27 03:18:08;;;;;;;19.65;8.25;;;5.10;90.00;;;;;;5085833;28;20035;-57
2023/01/27 03:20:34;;;;;;;14.40;7.43;;;5.10;90.00;;;;;;5087154;28;20059;-57
2023/01/27 03:22:59;;;;;;;17.33;8.27;;;5.10;90.00;;;;;;5086943;28;20029;-57
2023/01/27 03:25:25;;;;;;;15.38;7.82;;;5.10;90.00;;;;;;5085440;28;20036;-57
2023/01/27 03:27:50;;;;;;;19.85;8.15;;;5.10;90.00;;;;;;5085349;28;20040;-57
2023/01/27 03:30:16;;;;;;;19.42;7.93;;;5.10;90.00;;;;;;5085565;28;20021;-57
2023/01/27 03:32:50;;;;;;;21.88;8.82;;;5.10;90.10;;;;;;5085321;28;20054;-57
2023/01/27 03:35:16;;;;;;;21.17;7.55;;;5.10;90.00;;;;;;5086857;28;20388;-57
2023/01/27 03:48:37;;;;;;;14.57;8.05;;;5.10;90.10;;;;;;5086102;28;20043;-57
2023/01/27 03:51:04;;;;;;;10.77;7.53;;;5.10;90.10;;;;;;5086573;28;20032;-57
2023/01/27 03:53:30;;;;;;;16.17;7.50;;;5.00;90.00;;;;;;5086322;28;20031;-57
2023/01/27 03:55:56;;;;;;;14.75;7.68;;;5.00;90.00;;;;;;5068089;28;20127;-57
2023/01/27 03:58:25;;;;;;;15.07;7.15;;;5.00;90.00;;;;;;5068128;28;20039;-57
2023/01/27 04:00:59;;;;;;;13.07;7.40;;;5.00;90.10;;;;;;5084747;28;20031;-57
2023/01/27 04:08:56;;;;;;;14.07;7.03;;;5.00;90.00;;;;;;5070754;28;20039;-57
2023/01/27 04:14:06;;;;;;;14.90;7.55;;;5.00;90.00;;;;;;5084770;28;20059;-57
2023/01/27 04:16:33;;;;;;;13.95;7.93;;;5.00;90.10;;;;;;5085806;28;20441;-57
2023/01/27 04:18:58;;;;;;;17.60;8.13;;;5.00;90.10;;;;;;5084378;28;20055;-57
2023/01/27 04:21:24;;;;;;;14.45;7.32;;;5.00;90.10;;;;;;5085786;28;20025;-57
2023/01/27 04:23:50;;;;;;;16.23;8.05;;;5.00;90.10;;;;;;5067897;28;20425;-57
2023/01/27 04:26:16;;;;;;;12.80;7.85;;;5.00;90.10;;;;;;5085184;28;20036;-57
2023/01/27 04:28:42;;;;;;;13.63;7.45;;;5.00;90.10;;;;;;5085314;28;20043;-57
2023/01/27 04:31:08;;;;;;;15.07;7.68;;;5.00;90.10;;;;;;5084246;28;20357;-57
2023/01/27 04:33:33;;;;;;;14.98;7.38;;;5.00;90.00;;;;;;5085330;28;20039;-57
2023/01/27 04:35:59;;;;;;;12.93;7.00;;;5.00;90.00;;;;;;5084280;28;20029;-57
2023/01/27 04:38:24;;;;;;;17.77;7.07;;;5.00;90.00;;;;;;5085362;28;20476;-57
2023/01/27 04:40:50;;;;;;;17.73;7.43;;;5.00;90.00;;;;;;5084112;28;20031;-57
2023/01/27 04:43:15;;;;;;;14.57;6.93;;;5.00;90.00;;;;;;5100816;28;20039;-57
2023/01/27 04:45:41;;;;;;;15.68;7.47;;;5.00;90.00;;;;;;5084042;28;20456;-57
2023/01/27 04:48:06;;;;;;;11.63;7.25;;;5.00;90.10;;;;;;5066961;28;20040;-57
2023/01/27 04:50:32;;;;;;;9.52;7.00;;;5.00;90.20;;;;;;5085371;28;20473;-57
2023/01/27 04:52:58;;;;;;;12.02;7.25;;;5.00;90.30;;;;;;5084018;28;20028;-57
2023/01/27 04:55:23;;;;;;;12.65;6.97;;;5.00;90.30;;;;;;5085247;28;20088;-57
2023/01/27 04:57:49;;;;;;;12.43;7.10;;;5.00;90.40;;;;;;5083803;28;20048;-57
2023/01/27 05:00:15;;;;;;;11.20;7.25;;;5.00;90.30;;;;;;5085058;28;20069;-57
2023/01/27 05:02:40;;;;;;;19.38;7.57;;;5.00;90.30;;;;;;5085144;28;20157;-57
2023/01/27 05:05:06;;;;;;;10.95;6.93;;;5.10;90.40;;;;;;5083649;28;20046;-57
2023/01/27 05:07:32;;;;;;;11.00;7.82;;;5.00;90.30;;;;;;5083897;28;20033;-57
2023/01/27 05:09:57;;;;;;;10.63;7.20;;;5.00;90.30;;;;;;5083932;28;20031;-57
2023/01/27 05:12:23;;;;;;;9.23;6.32;;;5.00;90.60;;;;;;5083984;28;20517;-56
2023/01/27 05:14:48;;;;;;;10.30;7.53;;;5.10;90.40;;;;;;5084747;28;20044;-57
2023/01/27 05:17:14;;;;;;;11.52;7.45;;;5.00;90.40;;;;;;5083628;28;20032;-57
2023/01/27 05:19:39;;;;;;;13.02;7.22;;;5.00;90.40;;;;;;5084873;28;20035;-57
2023/01/27 05:22:05;;;;;;;13.65;8.20;;;5.10;90.50;;;;;;5083518;28;20499;-57
2023/01/27 05:24:31;;;;;;;12.40;7.75;;;5.00;90.50;;;;;;5083369;28;20028;-57
2023/01/27 05:26:56;;;;;;;8.45;6.93;;;5.10;90.50;;;;;;5084880;28;20448;-57
2023/01/27 05:29:22;;;;;;;16.40;8.00;;;5.10;90.50;;;;;;5084850;28;20383;-56
2023/01/27 05:31:47;;;;;;;12.75;7.85;;;5.10;90.40;;;;;;5083360;28;20021;-57
2023/01/27 05:34:13;;;;;;;10.00;7.43;;;5.10;90.40;;;;;;5049787;28;20048;-57
2023/01/27 05:36:39;;;;;;;11.15;7.53;;;5.00;90.30;;;;;;5084507;28;20088;-57
2023/01/27 05:39:04;;;;;;;12.10;7.85;;;5.10;90.30;;;;;;5085912;28;20076;-57
2023/01/27 05:41:30;;;;;;;12.32;7.65;;;5.00;90.30;;;;;;5070946;28;20468;-57
2023/01/27 05:43:56;;;;;;;12.20;7.50;;;5.10;90.30;;;;;;5088865;28;20404;-57
2023/01/27 05:46:23;;;;;;;12.32;7.78;;;5.00;90.30;;;;;;5104546;28;20047;-57
2023/01/27 05:48:53;;;;;;;12.10;7.60;;;5.00;90.30;;;;;;5087368;28;20043;-57
2023/01/27 05:51:20;;;;;;;12.43;7.60;;;5.00;90.20;;;;;;5087512;28;20029;-57
2023/01/27 05:53:46;;;;;;;15.52;8.90;;;5.00;90.30;;;;;;5087098;28;20025;-57
2023/01/27 05:56:13;;;;;;;11.45;8.15;;;5.00;90.30;;;;;;5087236;28;20059;-57
2023/01/27 05:58:38;;;;;;;12.57;8.38;;;5.00;90.20;;;;;;5088614;28;20119;-57
2023/01/27 06:01:11;;;;;;;11.70;7.82;;;5.00;90.20;;;;;;5086869;28;20033;-57
2023/01/27 06:03:36;;;;;;;10.25;8.30;;;5.00;90.20;;;;;;5088402;28;20017;-57
2023/01/27 06:06:02;;;;;;;10.60;8.07;;;4.90;90.20;;;;;;5086904;28;20036;-57
2023/01/27 06:08:28;;;;;;;17.15;9.65;;;4.90;90.20;;;;;;5086799;28;20048;-57
2023/01/27 06:10:54;;;;;;;12.57;9.15;;;4.90;90.20;;;;;;5070081;28;20465;-57
2023/01/27 06:13:20;;;;;;;13.23;9.57;;;4.90;90.20;;;;;;5087032;28;20020;-57
2023/01/27 06:15:46;;;;;;;15.60;9.60;;;4.90;90.50;;;;;;5086870;28;20533;-57
2023/01/27 06:18:13;;;;;;;14.20;10.00;;;4.90;90.20;;;;;;5086989;28;20021;-57
2023/01/27 06:20:39;;;;;;;15.93;10.00;;;4.90;90.30;;;;;;5086698;28;20033;-57
2023/01/27 06:23:05;;;;;;;15.00;10.77;;;4.90;90.30;;;;;;5087912;28;20054;-57
2023/01/27 06:25:35;;;;;;;12.75;10.02;;;4.90;90.30;;;;;;5069968;28;20085;-57
2023/01/27 06:28:00;;;;;;;12.05;10.07;;;4.80;90.30;;;;;;5086567;28;20024;-57
2023/01/27 06:30:26;;;;;;;12.88;10.07;;;4.90;90.30;;;;;;5086214;28;20039;-57
2023/01/27 06:32:51;;;;;;;16.63;10.45;;;4.80;90.30;;;;;;5069837;28;20052;-57
2023/01/27 06:35:17;;;;;;;12.70;9.63;;;4.80;90.30;;;;;;5087715;28;20020;-57
2023/01/27 06:37:42;;;;;;;14.75;10.35;;;4.80;90.30;;;;;;5087852;28;20046;-57
2023/01/27 06:40:08;;;;;;;15.75;10.57;;;4.80;90.30;;;;;;5086264;28;20020;-57
2023/01/27 06:42:34;;;;;;;14.70;11.13;;;4.80;90.40;;;;;;5087674;28;20027;-57
2023/01/27 06:45:00;;;;;;;15.38;10.80;;;4.80;90.40;;;;;;5069269;28;20025;-57
2023/01/27 06:47:25;;;;;;;13.73;11.05;;;4.80;90.40;;;;;;5087483;28;20139;-57
2023/01/27 06:49:51;;;;;;;16.23;11.27;;;4.80;90.40;;;;;;5085646;28;20134;-57
2023/01/27 06:52:16;;;;;;;14.68;10.73;;;4.80;90.40;;;;;;5087346;28;20131;-57
2023/01/27 06:54:42;;;;;;;12.85;10.07;;;4.80;90.40;;;;;;5069248;28;20474;-57
2023/01/27 06:57:11;;;;;;;12.27;10.40;;;4.70;90.40;;;;;;5087716;28;20053;-57
2023/01/27 06:59:37;;;;;;;13.48;10.73;;;4.80;90.40;;;;;;5087541;28;20052;-57
2023/01/27 07:02:02;;;;;;;12.88;10.05;;;4.80;90.40;;;;;;5087662;28;20094;-57
2023/01/27 07:04:29;;;;;;;12.75;10.32;;;4.80;90.40;;;;;;5087853;28;20021;-57
2023/01/27 07:06:54;;;;;;;13.18;10.50;;;4.80;90.40;;;;;;5087339;28;20082;-57
2023/01/27 07:09:20;;;;;;;16.38;11.05;;;4.80;90.40;;;;;;5086982;28;20107;-57
2023/01/27 07:11:45;;;;;;;12.23;10.13;;;4.80;90.50;;;;;;5069239;28;20101;-57
2023/01/27 07:14:11;;;;;;;14.07;10.85;;;4.80;90.50;;;;;;5087061;28;20033;-57
2023/01/27 07:16:37;;;;;;;12.40;10.55;;;4.70;90.50;;;;;;5086795;28;20088;-57
2023/01/27 07:19:02;;;;;;;15.80;11.30;;;4.70;90.40;;;;;;5086775;28;20032;-57
2023/01/27 07:21:28;;;;;;;13.32;10.63;;;4.70;90.50;;;;;;5086790;28;20033;-57
2023/01/27 07:23:53;;;;;;;14.43;11.00;;;4.70;90.50;;;;;;5098581;28;20087;-57
2023/01/27 07:26:19;;;;;;;18.17;11.57;;;4.70;90.50;;;;;;5089270;28;20032;-57
2023/01/27 07:28:44;;;;;;;17.65;10.68;;;4.80;90.50;;;;;;5084578;28;20035;-57
2023/01/27 07:31:10;;;;;;;28.58;12.18;;;4.70;90.60;;;;;;5086463;28;20035;-57
2023/01/27 07:33:36;;;;;;;18.10;10.18;;;4.70;90.70;;;;;;5086586;28;20028;-57
2023/01/27 07:36:01;;;;;;;43.53;13.52;;;4.70;90.70;;;;;;5085409;28;20029;-57
2023/01/27 07:38:27;;;;;;;30.80;12.25;;;4.70;90.60;;;;;;5086933;28;20024;-57
2023/01/27 07:40:52;;;;;;;41.28;12.60;;;4.70;90.60;;;;;;5085293;28;20051;-57
2023/01/27 07:43:18;;;;;;;49.28;14.60;;;4.80;90.70;;;;;;5068100;28;20035;-57
2023/01/27 07:45:47;;;;;;;35.90;12.82;;;4.80;90.70;;;;;;5086248;28;20028;-57
2023/01/27 07:48:13;;;;;;;44.50;14.50;;;4.80;90.90;;;;;;5084669;28;20055;-57
2023/01/27 07:50:39;;;;;;;48.50;14.48;;;4.80;90.80;;;;;;5084035;28;20020;-57
2023/01/27 07:53:05;;;;;;;41.85;14.75;;;4.90;90.80;;;;;;5084771;28;20039;-57
2023/01/27 07:55:31;;;;;;;40.35;15.45;;;4.80;90.70;;;;;;5086112;28;20063;-57
2023/01/27 07:57:56;;;;;;;48.33;15.77;;;4.80;90.70;;;;;;5084626;28;20029;-56
2023/01/27 08:00:23;;;;;;;42.83;14.73;;;4.80;90.80;;;;;;5094259;28;20028;-57
2023/01/27 08:02:52;;;;;;;54.45;15.05;;;4.90;90.80;;;;;;5105929;28;20035;-57
2023/01/27 08:05:19;;;;;;;48.67;14.75;;;4.80;90.80;;;;;;5103518;28;20036;-57
2023/01/27 08:07:45;;;;;;;44.63;14.48;;;4.90;90.80;;;;;;5087650;28;20095;-57
2023/01/27 08:10:10;;;;;;;49.40;14.27;;;4.90;91.10;;;;;;5104140;28;20039;-57
2023/01/27 08:12:36;;;;;;;58.47;18.27;;;4.90;90.70;;;;;;5104314;28;20121;-57
2023/01/27 08:15:01;;;;;;;64.88;17.95;;;4.90;90.70;;;;;;5086601;28;20024;-57
2023/01/27 08:17:27;;;;;;;53.08;16.52;;;4.80;90.80;;;;;;5091927;28;20024;-57
2023/01/27 08:19:52;;;;;;;79.28;17.80;;;4.90;90.80;;;;;;5104281;28;20046;-57
2023/01/27 08:22:21;;;;;;;48.47;15.98;;;4.90;90.90;;;;;;5102945;28;20114;-57
2023/01/27 08:24:49;;;;;;;68.10;16.05;;;4.90;90.90;;;;;;5087449;28;20020;-57
2023/01/27 08:27:16;;;;;;;62.00;16.90;;;4.90;90.90;;;;;;5104329;28;20084;-57
2023/01/27 08:29:41;;;;;;;56.22;16.67;;;4.90;91.00;;;;;;5103928;28;20032;-57
2023/01/27 08:32:07;;;;;;;61.50;17.92;;;4.90;90.90;;;;;;5094456;28;20097;-57
2023/01/27 08:34:33;;;;;;;68.65;17.92;;;4.90;90.90;;;;;;5083355;28;20047;-57
2023/01/27 08:36:58;;;;;;;68.80;17.50;;;5.00;91.00;;;;;;5103875;28;20051;-57
2023/01/27 08:39:24;;;;;;;58.40;17.58;;;5.00;91.00;;;;;;5103965;28;20085;-58
2023/01/27 08:41:49;;;;;;;77.05;17.70;;;4.90;91.00;;;;;;5116768;28;20031;-57
2023/01/27 08:44:15;;;;;;;55.30;17.50;;;5.00;91.00;;;;;;5124372;28;20023;-58
2023/01/27 08:46:40;;;;;;;115.80;20.27;;;4.90;91.00;;;;;;5107181;28;20019;-57
2023/01/27 08:49:06;;;;;;;118.95;19.92;;;4.90;90.90;;;;;;5096461;28;20037;-58
2023/01/27 08:51:33;;;;;;;67.40;17.27;;;4.90;91.00;;;;;;5091623;28;20096;-58
2023/01/27 08:53:58;;;;;;;50.92;16.90;;;4.90;91.10;;;;;;5087093;28;20035;-57
2023/01/27 08:56:24;;;;;;;54.28;16.13;;;4.90;91.00;;;;;;5085228;28;20028;-58
2023/01/27 08:58:51;;;;;;;94.97;19.63;;;4.90;91.00;;;;;;5099884;28;20093;-58
2023/01/27 09:01:16;;;;;;;62.95;17.08;;;4.90;91.00;;;;;;5094041;28;20032;-58
2023/01/27 09:03:42;;;;;;;86.95;18.77;;;4.90;91.00;;;;;;5088120;28;20147;-58
2023/01/27 09:06:08;;;;;;;83.20;21.27;;;4.90;91.10;;;;;;5082815;28;20032;-58
2023/01/27 09:08:34;;;;;;;76.15;18.67;;;4.90;91.10;;;;;;5099787;28;20022;-58
2023/01/27 09:11:06;;;;;;;55.28;17.80;;;4.90;91.10;;;;;;5103203;28;20055;-58
2023/01/27 09:13:31;;;;;;;82.30;19.63;;;4.90;91.10;;;;;;5095516;28;20062;-57
2023/01/27 09:15:57;;;;;;;71.07;17.85;;;4.90;91.20;;;;;;5089650;28;20032;-57
2023/01/27 09:18:22;;;;;;;87.97;19.60;;;5.00;91.30;;;;;;5083176;28;20556;-57
2023/01/27 09:20:48;;;;;;;87.05;19.92;;;5.00;91.20;;;;;;5090491;28;20035;-58
2023/01/27 09:23:13;;;;;;;107.97;20.67;;;5.00;91.20;;;;;;5092706;28;20105;-58
2023/01/27 09:25:39;;;;;;;86.57;19.05;;;5.00;91.20;;;;;;5091815;28;20044;-58
2023/01/27 09:28:04;;;;;;;71.72;18.73;;;5.00;91.20;;;;;;5092415;28;20031;-58
2023/01/27 09:30:30;;;;;;;76.53;18.98;;;5.00;91.10;;;;;;5096713;28;20057;-58
2023/01/27 09:33:00;;;;;;;88.88;21.42;;;5.00;91.00;;;;;;5090704;28;20040;-58
2023/01/27 09:35:29;;;;;;;74.25;19.33;;;5.10;91.10;;;;;;5090654;28;20032;-57
2023/01/27 09:37:56;;;;;;;84.90;19.30;;;5.00;91.20;;;;;;5080547;28;20093;-58
2023/01/27 09:40:29;;;;;;;89.85;19.63;;;5.00;91.30;;;;;;5080501;28;20043;-58
2023/01/27 09:43:04;;;;;;;85.38;20.23;;;5.00;91.30;;;;;;5084217;28;20039;-58
2023/01/27 09:45:47;;;;;;;111.53;21.00;;;5.10;91.40;;;;;;5085261;28;20107;-57
2023/01/27 09:48:44;;;;;;;86.97;21.48;;;5.10;91.40;;;;;;5102233;28;20365;-57
2023/01/27 09:51:59;;;;;;;104.20;21.85;;;5.10;91.50;;;;;;5101783;28;20067;-58
2023/01/27 09:54:34;;;;;;;92.22;20.60;;;5.10;91.50;;;;;;5030634;28;20037;-58
2023/01/27 09:57:30;;;;;;;110.47;20.55;;;5.10;91.40;;;;;;5095284;28;20414;-57
2023/01/27 10:00:26;;;;;;;72.95;18.75;;;5.10;91.40;;;;;;5059107;28;20141;-57
2023/01/27 10:03:06;;;;;;;87.05;19.80;;;5.10;91.30;;;;;;5102648;28;20055;-58
2023/01/27 10:05:38;;;;;;;90.93;19.13;;;5.10;91.30;;;;;;5113358;28;20385;-58
2023/01/27 10:08:22;;;;;;;72.88;18.92;;;5.10;91.20;;;;;;5101004;28;20020;-58
2023/01/27 10:10:57;;;;;;;72.30;18.15;;;5.10;91.20;;;;;;5102072;28;20024;-58
2023/01/27 10:13:41;;;;;;;72.95;17.02;;;5.10;91.20;;;;;;5100951;28;20043;-57
2023/01/27 10:16:29;;;;;;;98.03;20.45;;;5.10;91.20;;;;;;5100142;28;20050;-57
2023/01/27 10:19:17;;;;;;;91.63;19.23;;;5.10;91.30;;;;;;5082500;28;20050;-56
2023/01/27 10:22:08;;;;;;;89.10;20.20;;;5.10;91.40;;;;;;5087135;28;20032;-56
2023/01/27 10:24:58;;;;;;;82.88;17.48;;;5.10;91.40;;;;;;5076241;28;20080;-57
2023/01/27 10:27:25;;;;;;;63.17;17.35;;;5.10;91.50;;;;;;5106544;28;20036;-57
2023/01/27 10:30:16;;;;;;;69.75;18.95;;;5.10;91.40;;;;;;5106572;28;20043;-56
2023/01/27 10:32:48;;;;;;;80.25;17.73;;;5.10;91.40;;;;;;5066468;28;20112;-57
2023/01/27 10:35:19;;;;;;;53.92;16.58;;;5.10;91.30;;;;;;5086085;28;20149;-56
2023/01/27 10:37:54;;;;;;;63.08;17.98;;;5.10;91.30;;;;;;5088147;28;20020;-56
2023/01/27 10:40:39;;;;;;;70.57;17.30;;;5.20;91.30;;;;;;5106043;28;20024;-56
2023/01/27 10:43:32;;;;;;;79.93;17.15;;;5.20;91.30;;;;;;5103296;28;20055;-56
2023/01/27 10:46:05;;;;;;;55.78;14.90;;;5.10;91.30;;;;;;5102998;28;20031;-56
2023/01/27 10:48:43;;;;;;;64.95;15.27;;;5.20;91.40;;;;;;5097582;28;20028;-57
2023/01/27 10:51:25;;;;;;;58.35;16.33;;;5.20;91.40;;;;;;5100417;28;20036;-56
2023/01/27 10:54:01;;;;;;;66.25;18.85;;;5.20;91.30;;;;;;5098526;28;20028;-56
2023/01/27 10:56:49;;;;;;;70.53;16.90;;;5.20;91.40;;;;;;5090322;28;20028;-57
2023/01/27 10:59:39;;;;;;;73.88;17.70;;;5.20;91.40;;;;;;5095021;28;20019;-56
2023/01/27 11:02:13;;;;;;;74.30;17.45;;;5.20;91.30;;;;;;5106003;28;20653;-56
2023/01/27 11:04:46;;;;;;;52.85;16.95;;;5.20;91.30;;;;;;5076021;28;20067;-56
2023/01/27 11:07:16;;;;;;;80.13;16.65;;;5.20;91.20;;;;;;5106901;28;20043;-56
2023/01/27 11:10:07;;;;;;;59.63;15.20;;;5.20;91.20;;;;;;5088176;28;20027;-57
2023/01/27 11:12:40;;;;;;;64.18;15.15;;;5.20;91.20;;;;;;5093724;28;20178;-57
2023/01/27 11:15:26;;;;;;;71.97;17.67;;;5.20;91.20;;;;;;5090425;28;20368;-56
2023/01/27 11:17:56;;;;;;;89.10;16.80;;;5.20;91.20;;;;;;5101022;28;20032;-58
2023/01/27 11:20:39;;;;;;;79.38;18.25;;;5.20;91.30;;;;;;5105311;28;20031;-58
2023/01/27 11:23:08;;;;;;;93.45;17.40;;;5.20;91.30;;;;;;5083139;28;20033;-56
2023/01/27 11:26:02;;;;;;;81.97;16.98;;;5.20;91.20;;;;;;5104571;28;20095;-56
2023/01/27 11:28:40;;;;;;;68.28;16.98;;;5.20;91.20;;;;;;5106555;28;20039;-56
2023/01/27 11:31:36;;;;;;;61.00;15.18;;;5.20;91.20;;;;;;5101315;28;20393;-57
2023/01/27 11:34:06;;;;;;;70.80;17.17;;;5.20;91.20;;;;;;5084817;28;20064;-57
2023/01/27 11:36:35;;;;;;;71.88;15.77;;;5.20;91.10;;;;;;5079731;28;20033;-56
2023/01/27 11:39:03;;;;;;;76.30;15.75;;;5.30;91.20;;;;;;5104314;28;20028;-57
2023/01/27 11:41:31;;;;;;;97.35;17.60;;;5.30;91.10;;;;;;5090705;28;20033;-56
2023/01/27 11:44:04;;;;;;;81.82;16.67;;;5.30;91.10;;;;;;5086804;28;20024;-57
2023/01/27 11:46:31;;;;;;;90.70;17.52;;;5.30;91.10;;;;;;5087339;28;20031;-57
2023/01/27 11:48:56;;;;;;;111.22;18.48;;;5.30;91.20;;;;;;5103122;28;20040;-56
2023/01/27 11:51:28;;;;;;;92.65;16.70;;;5.30;91.30;;;;;;5084436;28;20029;-56
2023/01/27 11:54:00;;;;;;;86.78;17.73;;;5.40;91.30;;;;;;5103820;28;20028;-57
2023/01/27 11:56:25;;;;;;;96.97;18.30;;;5.40;91.30;;;;;;5105847;28;20060;-57
2023/01/27 11:59:02;;;;;;;86.90;17.55;;;5.40;91.40;;;;;;5078734;28;20024;-57
2023/01/27 12:02:02;;;;;;;97.40;17.25;;;5.40;91.20;;;;;;5103615;28;20123;-56
2023/01/27 12:04:50;;;;;;;110.80;20.10;;;5.50;91.10;;;;;;5062141;28;20498;-56
2023/01/27 12:07:25;;;;;;;94.47;17.73;;;5.50;91.00;;;;;;5083687;28;20032;-56
2023/01/27 12:09:50;;;;;;;109.85;17.98;;;5.50;91.10;;;;;;5092649;28;20028;-57
2023/01/27 12:12:20;;;;;;;146.10;20.58;;;5.50;91.00;;;;;;5104062;28;20030;-56
2023/01/27 12:14:49;;;;;;;113.82;20.15;;;5.50;91.10;;;;;;5103262;28;20107;-57
2023/01/27 12:17:20;;;;;;;114.40;20.88;;;5.50;91.10;;;;;;5094723;28;20035;-56
2023/01/27 12:19:46;;;;;;;133.45;20.63;;;5.50;91.10;;;;;;5067442;28;20111;-57
2023/01/27 12:22:27;;;;;;;131.15;20.20;;;5.50;91.20;;;;;;5100633;28;20111;-56
2023/01/27 12:25:00;;;;;;;110.10;19.13;;;5.60;91.20;;;;;;5102416;28;20048;-57
2023/01/27 12:27:27;;;;;;;107.38;20.38;;;5.60;91.00;;;;;;5084071;28;20476;-57
2023/01/27 12:29:55;;;;;;;92.68;19.02;;;5.60;90.90;;;;;;5091767;28;20054;-54
2023/01/27 12:32:33;;;;;;;99.90;19.25;;;5.60;90.90;;;;;;5102687;28;20032;-56
2023/01/27 12:34:58;;;;;;;94.70;16.60;;;5.60;90.80;;;;;;5097393;28;20098;-57
2023/01/27 12:37:35;;;;;;;82.53;16.90;;;5.60;90.80;;;;;;5102652;28;20064;-56
2023/01/27 12:40:03;;;;;;;116.28;20.23;;;5.50;90.60;;;;;;5103425;28;20027;-57
2023/01/27 12:42:43;;;;;;;135.02;18.92;;;5.60;90.60;;;;;;5103883;28;20031;-56
2023/01/27 12:45:25;;;;;;;108.03;18.27;;;5.60;90.60;;;;;;5089802;28;20173;-56
2023/01/27 12:47:58;;;;;;;87.97;18.13;;;5.50;90.60;;;;;;5085901;28;20051;-57
2023/01/27 12:50:27;;;;;;;141.13;21.00;;;5.60;90.70;;;;;;5104841;28;20077;-57
2023/01/27 12:53:08;;;;;;;126.60;19.27;;;5.50;90.80;;;;;;5089882;28;20027;-57
2023/01/27 12:55:38;;;;;;;122.32;19.67;;;5.60;90.80;;;;;;5103218;28;20053;-56
2023/01/27 12:58:04;;;;;;;135.50;19.27;;;5.60;90.80;;;;;;5081730;28;20056;-57
2023/01/27 13:00:29;;;;;;;108.93;18.35;;;5.60;90.80;;;;;;5088433;28;20027;-57
2023/01/27 13:03:05;;;;;;;98.57;16.45;;;5.60;90.80;;;;;;5107477;28;20023;-57
2023/01/27 13:05:37;;;;;;;135.63;20.38;;;5.60;90.80;;;;;;5078812;28;20093;-57
2023/01/27 13:08:03;;;;;;;140.13;20.55;;;5.60;90.70;;;;;;5086977;28;20036;-56
2023/01/27 13:10:29;;;;;;;142.45;21.63;;;5.60;90.80;;;;;;5098874;28;20082;-57
2023/01/27 13:12:58;;;;;;;152.52;21.52;;;5.60;90.80;;;;;;5066951;28;20062;-55
2023/01/27 13:15:32;;;;;;;152.52;20.42;;;5.60;90.90;;;;;;5083645;28;20330;-57
2023/01/27 13:17:58;;;;;;;112.40;20.77;;;5.70;90.80;;;;;;5085684;28;20043;-57
2023/01/27 13:20:38;;;;;;;133.45;21.60;;;5.60;90.70;;;;;;5071434;28;20025;-57